createdAt,value
2018-02-08T00:01:08.618Z,1020.73
2018-02-08T00:02:17.590Z,1020.75
2018-02-08T00:03:26.410Z,1020.72
2018-02-08T00:04:35.504Z,1020.73
2018-02-08T00:05:44.324Z,1020.73
2018-02-08T00:06:53.145Z,1020.7
2018-02-08T00:08:02.262Z,1020.76
2018-02-08T00:09:11.083Z,1020.8
2018-02-08T00:10:20.175Z,1020.8
2018-02-08T00:11:28.997Z,1020.77
2018-02-08T00:12:38.094Z,1020.75
2018-02-08T00:13:46.965Z,1020.79
2018-02-08T00:14:55.787Z,1020.77
2018-02-08T00:16:04.606Z,1020.78
2018-02-08T00:17:13.427Z,1020.77
2018-02-08T00:18:22.247Z,1020.78
2018-02-08T00:19:31.490Z,1020.76
2018-02-08T00:20:40.308Z,1020.74
2018-02-08T00:21:49.129Z,1020.76
2018-02-08T00:22:58.222Z,1020.75
2018-02-08T00:24:07.043Z,1020.76
2018-02-08T00:25:15.959Z,1020.74
2018-02-08T00:26:24.782Z,1020.75
2018-02-08T00:27:33.599Z,1020.78
2018-02-08T00:28:42.419Z,1020.78
2018-02-08T00:29:51.239Z,1020.77
2018-02-08T00:31:00.162Z,1020.75
2018-02-08T00:32:08.982Z,1020.77
2018-02-08T00:33:17.803Z,1020.79
2018-02-08T00:34:26.623Z,1020.78
2018-02-08T00:35:35.444Z,1020.77
2018-02-08T00:36:44.512Z,1020.77
2018-02-08T00:37:53.331Z,1020.8
2018-02-08T00:39:02.151Z,1020.73
2018-02-08T00:40:10.971Z,1020.76
2018-02-08T00:41:19.791Z,1020.77
2018-02-08T00:42:28.709Z,1020.76
2018-02-08T00:43:37.528Z,1020.76
2018-02-08T00:44:46.349Z,1020.77
2018-02-08T00:45:55.171Z,1020.8
2018-02-08T00:47:03.989Z,1020.77
2018-02-08T00:48:13.111Z,1020.77
2018-02-08T00:49:21.932Z,1020.72
2018-02-08T00:50:30.752Z,1020.75
2018-02-08T00:51:39.569Z,1020.73
2018-02-08T00:52:48.390Z,1020.71
2018-02-08T00:53:57.262Z,1020.77
2018-02-08T00:55:06.083Z,1020.7
2018-02-08T00:56:14.905Z,1020.74
2018-02-08T00:57:23.728Z,1020.66
2018-02-08T00:58:32.549Z,1020.6
2018-02-08T00:59:41.368Z,1020.62
2018-02-08T01:00:50.189Z,1020.63
2018-02-08T01:01:59.009Z,1020.63
2018-02-08T01:03:07.830Z,1020.64
2018-02-08T01:04:16.651Z,1020.6
2018-02-08T01:05:25.622Z,1020.61
2018-02-08T01:06:34.439Z,1020.61
2018-02-08T01:07:43.259Z,1020.6
2018-02-08T01:08:52.077Z,1020.6
2018-02-08T01:10:00.897Z,1020.62
2018-02-08T01:11:10.019Z,1020.6
2018-02-08T01:12:18.841Z,1020.61
2018-02-08T01:13:27.660Z,1020.57
2018-02-08T01:14:36.481Z,1020.58
2018-02-08T01:15:45.304Z,1020.56
2018-02-08T01:16:54.272Z,1020.5
2018-02-08T01:18:03.368Z,1020.55
2018-02-08T01:19:12.188Z,1020.56
2018-02-08T01:20:21.011Z,1020.52
2018-02-08T01:21:29.832Z,1020.49
2018-02-08T01:22:38.801Z,1020.48
2018-02-08T01:23:47.621Z,1020.5
2018-02-08T01:24:56.443Z,1020.54
2018-02-08T01:26:05.265Z,1020.53
2018-02-08T01:27:14.085Z,1020.51
2018-02-08T01:28:23.304Z,1020.54
2018-02-08T01:29:32.127Z,1020.55
2018-02-08T01:30:40.947Z,1020.58
2018-02-08T01:31:49.768Z,1020.58
2018-02-08T01:32:58.588Z,1020.58
2018-02-08T01:34:07.784Z,1020.62
2018-02-08T01:35:16.600Z,1020.59
2018-02-08T01:36:25.431Z,1020.59
2018-02-08T01:37:34.250Z,1020.59
2018-02-08T01:38:43.070Z,1020.6
2018-02-08T01:39:51.992Z,1020.58
2018-02-08T01:41:00.814Z,1020.62
2018-02-08T01:42:09.632Z,1020.54
2018-02-08T01:43:18.451Z,1020.57
2018-02-08T01:44:27.270Z,1020.6
2018-02-08T01:45:36.647Z,1020.55
2018-02-08T01:46:45.469Z,1020.6
2018-02-08T01:47:54.289Z,1020.61
2018-02-08T01:49:03.109Z,1020.55
2018-02-08T01:50:11.931Z,1020.54
2018-02-08T01:51:20.902Z,1020.53
2018-02-08T01:52:29.735Z,1020.56
2018-02-08T01:53:38.552Z,1020.52
2018-02-08T01:54:47.646Z,1020.52
2018-02-08T01:55:56.467Z,1020.54
2018-02-08T01:57:05.446Z,1020.5
2018-02-08T01:58:14.266Z,1020.48
2018-02-08T01:59:23.361Z,1020.51
2018-02-08T02:00:32.179Z,1020.52
2018-02-08T02:01:40.999Z,1020.49
2018-02-08T02:02:49.920Z,1020.5
2018-02-08T02:03:58.743Z,1020.51
2018-02-08T02:05:07.558Z,1020.52
2018-02-08T02:06:16.378Z,1020.48
2018-02-08T02:07:25.211Z,1020.52
2018-02-08T02:08:34.029Z,1020.57
2018-02-08T02:09:42.847Z,1020.47
2018-02-08T02:10:51.668Z,1020.52
2018-02-08T02:12:00.488Z,1020.51
2018-02-08T02:13:09.579Z,1020.53
2018-02-08T02:14:18.397Z,1020.5
2018-02-08T02:15:27.215Z,1020.47
2018-02-08T02:16:36.036Z,1020.5
2018-02-08T02:17:44.859Z,1020.53
2018-02-08T02:18:53.677Z,1020.55
2018-02-08T02:20:02.547Z,1020.5
2018-02-08T02:21:11.367Z,1020.49
2018-02-08T02:22:20.185Z,1020.51
2018-02-08T02:23:29.006Z,1020.47
2018-02-08T02:24:38.101Z,1020.46
2018-02-08T02:25:47.021Z,1020.45
2018-02-08T02:26:55.842Z,1020.49
2018-02-08T02:28:04.664Z,1020.44
2018-02-08T02:29:13.484Z,1020.45
2018-02-08T02:30:22.304Z,1020.47
2018-02-08T02:31:31.424Z,1020.51
2018-02-08T02:32:40.244Z,1020.45
2018-02-08T02:33:49.067Z,1020.48
2018-02-08T02:34:57.890Z,1020.47
2018-02-08T02:36:06.989Z,1020.52
2018-02-08T02:37:15.908Z,1020.54
2018-02-08T02:38:24.729Z,1020.54
2018-02-08T02:39:33.547Z,1020.5
2018-02-08T02:40:42.924Z,1020.56
2018-02-08T02:41:51.743Z,1020.51
2018-02-08T02:43:00.864Z,1020.51
2018-02-08T02:44:09.684Z,1020.49
2018-02-08T02:45:18.504Z,1020.49
2018-02-08T02:46:27.326Z,1020.47
2018-02-08T02:47:36.146Z,1020.45
2018-02-08T02:48:45.241Z,1020.46
2018-02-08T02:49:54.071Z,1020.48
2018-02-08T02:51:02.889Z,1020.49
2018-02-08T02:52:11.709Z,1020.5
2018-02-08T02:53:20.811Z,1020.53
2018-02-08T02:54:30.282Z,1020.55
2018-02-08T02:55:39.105Z,1020.56
2018-02-08T02:56:48.200Z,1020.55
2018-02-08T02:57:57.026Z,1020.57
2018-02-08T02:59:05.846Z,1020.52
2018-02-08T03:00:15.039Z,1020.52
2018-02-08T03:01:23.884Z,1020.54
2018-02-08T03:02:32.962Z,1020.56
2018-02-08T03:03:41.780Z,1020.55
2018-02-08T03:04:50.605Z,1020.5
2018-02-08T03:05:59.520Z,1020.49
2018-02-08T03:07:08.337Z,1020.56
2018-02-08T03:08:17.157Z,1020.56
2018-02-08T03:09:25.979Z,1020.56
2018-02-08T03:10:34.799Z,1020.58
2018-02-08T03:11:43.769Z,1020.54
2018-02-08T03:12:52.588Z,1020.54
2018-02-08T03:14:01.407Z,1020.51
2018-02-08T03:15:10.226Z,1020.53
2018-02-08T03:16:19.044Z,1020.58
2018-02-08T03:17:27.867Z,1020.56
2018-02-08T03:18:36.686Z,1020.61
2018-02-08T03:19:45.506Z,1020.62
2018-02-08T03:20:54.323Z,1020.63
2018-02-08T03:22:03.145Z,1020.61
2018-02-08T03:23:11.964Z,1020.59
2018-02-08T03:24:21.062Z,1020.6
2018-02-08T03:25:29.880Z,1020.63
2018-02-08T03:26:38.699Z,1020.63
2018-02-08T03:27:47.520Z,1020.7
2018-02-08T03:28:56.388Z,1020.67
2018-02-08T03:30:05.483Z,1020.71
2018-02-08T03:31:14.304Z,1020.69
2018-02-08T03:32:23.126Z,1020.68
2018-02-08T03:33:32.220Z,1020.73
2018-02-08T03:34:41.291Z,1020.73
2018-02-08T03:35:50.109Z,1020.76
2018-02-08T03:36:58.931Z,1020.72
2018-02-08T03:38:07.749Z,1020.73
2018-02-08T03:39:16.568Z,1020.73
2018-02-08T03:40:25.639Z,1020.69
2018-02-08T03:41:34.457Z,1020.7
2018-02-08T03:42:43.277Z,1020.72
2018-02-08T03:43:52.094Z,1020.69
2018-02-08T03:45:01.190Z,1020.76
2018-02-08T03:46:10.112Z,1020.72
2018-02-08T03:47:18.931Z,1020.74
2018-02-08T03:48:27.750Z,1020.74
2018-02-08T03:49:36.567Z,1020.78
2018-02-08T03:50:45.386Z,1020.74
2018-02-08T03:51:54.306Z,1020.8
2018-02-08T03:53:03.124Z,1020.79
2018-02-08T03:54:11.944Z,1020.73
2018-02-08T03:55:20.763Z,1020.78
2018-02-08T03:56:29.580Z,1020.73
2018-02-08T03:57:38.500Z,1020.79
2018-02-08T03:58:47.319Z,1020.76
2018-02-08T03:59:56.141Z,1020.78
2018-02-08T04:01:04.962Z,1020.78
2018-02-08T04:02:13.783Z,1020.82
2018-02-08T04:03:22.881Z,1020.83
2018-02-08T04:04:31.973Z,1020.78
2018-02-08T04:05:40.792Z,1020.71
2018-02-08T04:06:49.612Z,1020.69
2018-02-08T04:07:58.432Z,1020.72
2018-02-08T04:09:07.673Z,1020.72
2018-02-08T04:10:16.492Z,1020.7
2018-02-08T04:11:25.314Z,1020.71
2018-02-08T04:12:34.131Z,1020.71
2018-02-08T04:13:42.950Z,1020.73
2018-02-08T04:14:51.869Z,1020.69
2018-02-08T04:16:00.689Z,1020.69
2018-02-08T04:17:09.509Z,1020.66
2018-02-08T04:18:18.329Z,1020.69
2018-02-08T04:19:27.149Z,1020.66
2018-02-08T04:20:36.068Z,1020.69
2018-02-08T04:21:44.888Z,1020.7
2018-02-08T04:22:53.981Z,1020.67
2018-02-08T04:24:03.346Z,1020.69
2018-02-08T04:25:12.165Z,1020.72
2018-02-08T04:26:21.135Z,1020.71
2018-02-08T04:27:29.955Z,1020.7
2018-02-08T04:28:38.773Z,1020.7
2018-02-08T04:29:47.590Z,1020.73
2018-02-08T04:30:56.411Z,1020.7
2018-02-08T04:32:05.534Z,1020.74
2018-02-08T04:33:14.355Z,1020.76
2018-02-08T04:34:23.173Z,1020.78
2018-02-08T04:35:31.992Z,1020.78
2018-02-08T04:36:40.809Z,1020.76
2018-02-08T04:37:49.628Z,1020.76
2018-02-08T04:38:58.445Z,1020.72
2018-02-08T04:40:07.265Z,1020.72
2018-02-08T04:41:16.084Z,1020.75
2018-02-08T04:42:24.904Z,1020.75
2018-02-08T04:43:34.123Z,1020.76
2018-02-08T04:44:42.943Z,1020.73
2018-02-08T04:45:51.762Z,1020.71
2018-02-08T04:47:00.580Z,1020.72
2018-02-08T04:48:09.399Z,1020.72
2018-02-08T04:49:18.494Z,1020.72
2018-02-08T04:50:27.317Z,1020.74
2018-02-08T04:51:36.134Z,1020.74
2018-02-08T04:52:44.953Z,1020.73
2018-02-08T04:53:53.772Z,1020.76
2018-02-08T04:55:02.590Z,1020.76
2018-02-08T04:56:11.408Z,1020.79
2018-02-08T04:57:20.226Z,1020.81
2018-02-08T04:58:29.047Z,1020.82
2018-02-08T04:59:38.145Z,1020.77
2018-02-08T05:00:47.386Z,1020.75
2018-02-08T05:01:56.207Z,1020.74
2018-02-08T05:03:05.028Z,1020.68
2018-02-08T05:04:13.847Z,1020.73
2018-02-08T05:05:22.666Z,1020.79
2018-02-08T05:06:31.683Z,1020.84
2018-02-08T05:07:40.504Z,1020.79
2018-02-08T05:08:49.323Z,1020.83
2018-02-08T05:09:58.141Z,1020.83
2018-02-08T05:11:06.962Z,1020.84
2018-02-08T05:12:15.781Z,1020.89
2018-02-08T05:13:24.599Z,1020.87
2018-02-08T05:14:33.418Z,1020.83
2018-02-08T05:15:42.237Z,1020.88
2018-02-08T05:16:51.055Z,1020.85
2018-02-08T05:17:59.873Z,1020.76
2018-02-08T05:19:08.694Z,1020.76
2018-02-08T05:20:17.513Z,1020.78
2018-02-08T05:21:26.331Z,1020.8
2018-02-08T05:22:35.151Z,1020.84
2018-02-08T05:23:44.445Z,1020.82
2018-02-08T05:24:53.263Z,1020.86
2018-02-08T05:26:02.084Z,1020.84
2018-02-08T05:27:10.905Z,1020.82
2018-02-08T05:28:19.720Z,1020.84
2018-02-08T05:29:28.813Z,1020.87
2018-02-08T05:30:37.630Z,1020.85
2018-02-08T05:31:46.448Z,1020.89
2018-02-08T05:32:55.275Z,1020.88
2018-02-08T05:34:04.092Z,1020.84
2018-02-08T05:35:13.009Z,1020.85
2018-02-08T05:36:21.827Z,1020.87
2018-02-08T05:37:30.919Z,1020.84
2018-02-08T05:38:39.740Z,1020.84
2018-02-08T05:39:48.562Z,1020.86
2018-02-08T05:40:57.533Z,1020.89
2018-02-08T05:42:06.350Z,1020.95
2018-02-08T05:43:15.169Z,1020.92
2018-02-08T05:44:23.994Z,1020.87
2018-02-08T05:45:32.808Z,1020.93
2018-02-08T05:46:41.872Z,1020.91
2018-02-08T05:47:50.691Z,1020.94
2018-02-08T05:48:59.510Z,1020.98
2018-02-08T05:50:08.329Z,1020.95
2018-02-08T05:51:17.149Z,1020.94
2018-02-08T05:52:26.120Z,1020.97
2018-02-08T05:53:34.940Z,1020.97
2018-02-08T05:54:43.760Z,1020.93
2018-02-08T05:55:52.576Z,1020.94
2018-02-08T05:57:01.395Z,1020.93
2018-02-08T05:58:10.322Z,1020.9
2018-02-08T05:59:19.422Z,1020.92
2018-02-08T06:00:28.242Z,1020.91
2018-02-08T06:01:37.060Z,1020.89
2018-02-08T06:02:45.880Z,1020.95
2018-02-08T06:03:54.999Z,1020.97
2018-02-08T06:05:03.819Z,1020.98
2018-02-08T06:06:12.635Z,1020.95
2018-02-08T06:07:21.453Z,1020.99
2018-02-08T06:08:30.548Z,1020.95
2018-02-08T06:09:39.468Z,1020.97
2018-02-08T06:10:48.287Z,1021.01
2018-02-08T06:11:57.107Z,1021.01
2018-02-08T06:13:05.926Z,1021.01
2018-02-08T06:14:14.744Z,1021.02
2018-02-08T06:15:23.866Z,1021.04
2018-02-08T06:16:32.690Z,1021.05
2018-02-08T06:17:41.503Z,1021.08
2018-02-08T06:18:50.594Z,1021.07
2018-02-08T06:19:59.415Z,1021.01
2018-02-08T06:21:08.658Z,1021.05
2018-02-08T06:22:17.480Z,1021.09
2018-02-08T06:23:26.297Z,1021.07
2018-02-08T06:24:35.116Z,1021.13
2018-02-08T06:25:43.938Z,1021.1
2018-02-08T06:26:52.907Z,1021.08
2018-02-08T06:28:01.728Z,1021.05
2018-02-08T06:29:10.565Z,1021.13
2018-02-08T06:30:19.367Z,1021.11
2018-02-08T06:31:28.187Z,1021.1
2018-02-08T06:32:37.056Z,1021.13
2018-02-08T06:33:45.877Z,1021.14
2018-02-08T06:34:54.700Z,1021.12
2018-02-08T06:36:03.516Z,1021.15
2018-02-08T06:37:12.339Z,1021.1
2018-02-08T06:38:21.255Z,1021.16
2018-02-08T06:39:30.074Z,1021.11
2018-02-08T06:40:38.894Z,1021.15
2018-02-08T06:41:47.713Z,1021.17
2018-02-08T06:42:56.528Z,1021.15
2018-02-08T06:44:05.498Z,1021.17
2018-02-08T06:45:14.318Z,1021.2
2018-02-08T06:46:23.134Z,1021.19
2018-02-08T06:47:32.004Z,1021.19
2018-02-08T06:48:40.825Z,1021.16
2018-02-08T06:49:49.694Z,1021.2
2018-02-08T06:50:58.513Z,1021.22
2018-02-08T06:52:07.606Z,1021.22
2018-02-08T06:53:16.425Z,1021.23
2018-02-08T06:54:25.245Z,1021.25
2018-02-08T06:55:34.214Z,1021.25
2018-02-08T06:56:43.034Z,1021.26
2018-02-08T06:57:51.853Z,1021.22
2018-02-08T06:59:00.671Z,1021.23
2018-02-08T07:00:09.491Z,1021.19
2018-02-08T07:01:18.410Z,1021.23
2018-02-08T07:02:27.228Z,1021.22
2018-02-08T07:03:36.107Z,1021.22
2018-02-08T07:04:45.209Z,1021.19
2018-02-08T07:05:54.308Z,1021.13
2018-02-08T07:07:03.529Z,1021.22
2018-02-08T07:08:12.347Z,1021.19
2018-02-08T07:09:21.166Z,1021.24
2018-02-08T07:10:29.985Z,1021.23
2018-02-08T07:11:38.807Z,1021.25
2018-02-08T07:12:47.887Z,1021.24
2018-02-08T07:13:56.712Z,1021.3
2018-02-08T07:15:05.533Z,1021.3
2018-02-08T07:16:14.359Z,1021.24
2018-02-08T07:17:23.175Z,1021.27
2018-02-08T07:18:32.046Z,1021.29
2018-02-08T07:19:40.865Z,1021.29
2018-02-08T07:20:49.684Z,1021.28
2018-02-08T07:21:58.510Z,1021.32
2018-02-08T07:23:07.325Z,1021.37
2018-02-08T07:24:16.195Z,1021.41
2018-02-08T07:25:25.017Z,1021.44
2018-02-08T07:26:33.837Z,1021.46
2018-02-08T07:27:42.932Z,1021.47
2018-02-08T07:28:51.751Z,1021.44
2018-02-08T07:30:00.668Z,1021.45
2018-02-08T07:31:09.507Z,1021.47
2018-02-08T07:32:18.307Z,1021.49
2018-02-08T07:33:27.126Z,1021.47
2018-02-08T07:34:35.949Z,1021.56
2018-02-08T07:35:44.817Z,1021.54
2018-02-08T07:36:53.637Z,1021.55
2018-02-08T07:38:02.459Z,1021.56
2018-02-08T07:39:11.282Z,1021.57
2018-02-08T07:40:20.101Z,1021.57
2018-02-08T07:41:29.023Z,1021.62
2018-02-08T07:42:37.843Z,1021.6
2018-02-08T07:43:46.663Z,1021.55
2018-02-08T07:44:55.484Z,1021.59
2018-02-08T07:46:04.308Z,1021.55
2018-02-08T07:47:13.179Z,1021.57
2018-02-08T07:48:22.552Z,1021.6
2018-02-08T07:49:31.372Z,1021.61
2018-02-08T07:50:40.192Z,1021.62
2018-02-08T07:51:49.016Z,1021.59
2018-02-08T07:52:57.834Z,1021.59
2018-02-08T07:54:06.656Z,1021.64
2018-02-08T07:55:15.478Z,1021.6
2018-02-08T07:56:24.300Z,1021.63
2018-02-08T07:57:33.119Z,1021.63
2018-02-08T07:58:42.238Z,1021.64
2018-02-08T07:59:51.058Z,1021.67
2018-02-08T08:00:59.880Z,1021.67
2018-02-08T08:02:08.976Z,1021.67
2018-02-08T08:03:17.797Z,1021.68
2018-02-08T08:04:26.993Z,1021.65
2018-02-08T08:05:35.813Z,1021.66
2018-02-08T08:06:44.634Z,1021.74
2018-02-08T08:07:53.457Z,1021.71
2018-02-08T08:09:02.279Z,1021.74
2018-02-08T08:10:11.251Z,1021.75
2018-02-08T08:11:20.072Z,1021.76
2018-02-08T08:12:28.892Z,1021.78
2018-02-08T08:13:37.720Z,1021.78
2018-02-08T08:14:46.541Z,1021.79
2018-02-08T08:15:55.362Z,1021.81
2018-02-08T08:17:04.182Z,1021.79
2018-02-08T08:18:13.279Z,1021.81
2018-02-08T08:19:22.101Z,1021.86
2018-02-08T08:20:30.923Z,1021.83
2018-02-08T08:21:39.843Z,1021.88
2018-02-08T08:22:48.663Z,1021.92
2018-02-08T08:23:57.486Z,1021.94
2018-02-08T08:25:06.308Z,1021.98
2018-02-08T08:26:15.128Z,1021.98
2018-02-08T08:27:24.157Z,1022
2018-02-08T08:28:32.976Z,1022.01
2018-02-08T08:29:42.067Z,1022.02
2018-02-08T08:30:50.888Z,1022.09
2018-02-08T08:31:59.984Z,1022.09
2018-02-08T08:33:09.108Z,1022.06
2018-02-08T08:34:17.927Z,1022.07
2018-02-08T08:35:26.750Z,1022.08
2018-02-08T08:36:35.570Z,1022.06
2018-02-08T08:37:44.393Z,1022.1
2018-02-08T08:38:53.215Z,1022.08
2018-02-08T08:40:02.371Z,1022.1
2018-02-08T08:41:11.142Z,1022.08
2018-02-08T08:42:19.962Z,1022.05
2018-02-08T08:43:28.783Z,1022.04
2018-02-08T08:44:37.655Z,1021.98
2018-02-08T08:45:46.476Z,1021.98
2018-02-08T08:46:55.298Z,1021.91
2018-02-08T08:48:04.120Z,1021.86
2018-02-08T08:49:12.942Z,1021.87
2018-02-08T08:50:21.964Z,1021.83
2018-02-08T08:51:30.788Z,1021.84
2018-02-08T08:52:39.879Z,1021.87
2018-02-08T08:53:48.700Z,1021.89
2018-02-08T08:54:57.520Z,1021.88
2018-02-08T08:56:06.393Z,1021.89
2018-02-08T08:57:15.217Z,1021.93
2018-02-08T08:58:24.037Z,1021.86
2018-02-08T08:59:32.860Z,1021.88
2018-02-08T09:00:41.683Z,1021.88
2018-02-08T09:01:50.557Z,1021.86
2018-02-08T09:02:59.380Z,1021.87
2018-02-08T09:04:08.204Z,1021.85
2018-02-08T09:05:17.026Z,1021.84
2018-02-08T09:06:25.848Z,1021.87
2018-02-08T09:07:34.971Z,1021.82
2018-02-08T09:08:43.790Z,1021.8
2018-02-08T09:09:52.885Z,1021.82
2018-02-08T09:11:01.705Z,1021.83
2018-02-08T09:12:10.801Z,1021.84
2018-02-08T09:13:19.774Z,1021.83
2018-02-08T09:14:28.596Z,1021.83
2018-02-08T09:15:37.419Z,1021.84
2018-02-08T09:16:46.242Z,1021.86
2018-02-08T09:17:55.064Z,1021.86
2018-02-08T09:19:03.887Z,1021.85
2018-02-08T09:20:12.709Z,1021.89
2018-02-08T09:21:21.532Z,1021.93
2018-02-08T09:22:30.355Z,1021.86
2018-02-08T09:23:39.182Z,1021.94
2018-02-08T09:24:48.102Z,1021.87
2018-02-08T09:25:56.934Z,1021.92
2018-02-08T09:27:05.750Z,1021.91
2018-02-08T09:28:14.575Z,1021.9
2018-02-08T09:29:23.398Z,1021.97
2018-02-08T09:30:32.421Z,1021.97
2018-02-08T09:31:41.245Z,1021.93
2018-02-08T09:32:50.069Z,1021.99
2018-02-08T09:33:59.175Z,1021.96
2018-02-08T09:35:07.998Z,1021.99
2018-02-08T09:36:16.920Z,1021.97
2018-02-08T09:37:25.744Z,1022.03
2018-02-08T09:38:34.569Z,1022.04
2018-02-08T09:39:43.396Z,1022.03
2018-02-08T09:40:52.212Z,1022.03
2018-02-08T09:42:01.234Z,1022.09
2018-02-08T09:43:10.057Z,1022.09
2018-02-08T09:44:18.880Z,1022.07
2018-02-08T09:45:27.707Z,1022.04
2018-02-08T09:46:36.530Z,1022.06
2018-02-08T09:47:45.453Z,1022.05
2018-02-08T09:48:54.275Z,1022.03
2018-02-08T09:50:03.099Z,1022.03
2018-02-08T09:51:12.198Z,1022.06
2018-02-08T09:52:21.297Z,1022.08
2018-02-08T09:53:30.270Z,1022.12
2018-02-08T09:54:39.094Z,1022.11
2018-02-08T09:55:47.917Z,1022.11
2018-02-08T09:56:56.741Z,1022.11
2018-02-08T09:58:05.566Z,1022.13
2018-02-08T09:59:14.688Z,1022.14
2018-02-08T10:00:23.512Z,1022.11
2018-02-08T10:01:32.338Z,1022.13
2018-02-08T10:02:41.162Z,1022.14
2018-02-08T10:03:49.987Z,1022.09
2018-02-08T10:04:58.861Z,1022.04
2018-02-08T10:06:07.686Z,1022.02
2018-02-08T10:07:16.510Z,1022.02
2018-02-08T10:08:25.386Z,1022.04
2018-02-08T10:09:34.489Z,1021.96
2018-02-08T10:10:43.513Z,1022
2018-02-08T10:11:52.339Z,1022.05
2018-02-08T10:13:01.165Z,1022.06
2018-02-08T10:14:09.988Z,1022.11
2018-02-08T10:15:19.086Z,1022.09
2018-02-08T10:16:28.012Z,1022.12
2018-02-08T10:17:36.835Z,1022.13
2018-02-08T10:18:45.994Z,1022.14
2018-02-08T10:19:55.147Z,1022.19
2018-02-08T10:21:04.244Z,1022.18
2018-02-08T10:22:13.743Z,1022.15
2018-02-08T10:23:22.568Z,1022.19
2018-02-08T10:24:31.394Z,1022.14
2018-02-08T10:25:40.495Z,1022.16
2018-02-08T10:26:49.600Z,1022.12
2018-02-08T10:27:58.521Z,1022.12
2018-02-08T10:29:07.346Z,1022.15
2018-02-08T10:30:16.171Z,1022.14
2018-02-08T10:31:24.994Z,1022.2
2018-02-08T10:32:33.819Z,1022.18
2018-02-08T10:33:42.645Z,1022.14
2018-02-08T10:34:51.470Z,1022.16
2018-02-08T10:36:00.328Z,1022.14
2018-02-08T10:37:09.217Z,1022.12
2018-02-08T10:38:18.041Z,1022.13
2018-02-08T10:39:27.121Z,1022.1
2018-02-08T10:40:36.216Z,1022.08
2018-02-08T10:41:45.042Z,1022.08
2018-02-08T10:42:53.867Z,1022.06
2018-02-08T10:44:02.974Z,1022.1
2018-02-08T10:45:11.798Z,1022.04
2018-02-08T10:46:20.627Z,1022.08
2018-02-08T10:47:29.447Z,1022.08
2018-02-08T10:48:38.272Z,1022.07
2018-02-08T10:49:47.097Z,1022.12
2018-02-08T10:50:56.027Z,1022.08
2018-02-08T10:52:05.123Z,1022.11
2018-02-08T10:53:14.220Z,1022.1
2018-02-08T10:54:23.047Z,1022.11
2018-02-08T10:55:31.871Z,1022.11
2018-02-08T10:56:40.998Z,1022.11
2018-02-08T10:57:49.826Z,1022.14
2018-02-08T10:58:58.653Z,1022.12
2018-02-08T11:00:07.476Z,1022.11
2018-02-08T11:01:16.301Z,1022.1
2018-02-08T11:02:25.226Z,1022.11
2018-02-08T11:03:34.052Z,1022.07
2018-02-08T11:04:42.882Z,1022.1
2018-02-08T11:05:51.748Z,1022.14
2018-02-08T11:07:00.529Z,1022.07
2018-02-08T11:08:09.407Z,1022.12
2018-02-08T11:09:18.234Z,1022.14
2018-02-08T11:10:27.059Z,1022.06
2018-02-08T11:11:35.886Z,1022.1
2018-02-08T11:12:44.712Z,1022.12
2018-02-08T11:13:53.691Z,1022.12
2018-02-08T11:15:02.517Z,1022.08
2018-02-08T11:16:11.345Z,1022.09
2018-02-08T11:17:20.170Z,1022.14
2018-02-08T11:18:28.997Z,1022.13
2018-02-08T11:19:37.921Z,1022.12
2018-02-08T11:20:46.747Z,1022.08
2018-02-08T11:21:55.573Z,1022.08
2018-02-08T11:23:04.399Z,1022.1
2018-02-08T11:24:13.225Z,1022.07
2018-02-08T11:25:22.200Z,1022.06
2018-02-08T11:26:31.026Z,1022.03
2018-02-08T11:27:39.853Z,1022.01
2018-02-08T11:28:48.678Z,1022.05
2018-02-08T11:29:57.781Z,1022.06
2018-02-08T11:31:06.607Z,1022.05
2018-02-08T11:32:15.436Z,1022.04
2018-02-08T11:33:24.262Z,1022.06
2018-02-08T11:34:33.361Z,1022
2018-02-08T11:35:42.187Z,1022.01
2018-02-08T11:36:51.111Z,1021.99
2018-02-08T11:37:59.935Z,1022
2018-02-08T11:39:08.762Z,1021.99
2018-02-08T11:40:17.589Z,1021.98
2018-02-08T11:41:26.434Z,1022.01
2018-02-08T11:42:35.261Z,1022.02
2018-02-08T11:43:44.087Z,1022.02
2018-02-08T11:44:52.913Z,1022.01
2018-02-08T11:46:01.742Z,1022
2018-02-08T11:47:10.568Z,1021.99
2018-02-08T11:48:19.819Z,1022.03
2018-02-08T11:49:28.647Z,1022
2018-02-08T11:50:37.472Z,1022.06
2018-02-08T11:51:46.300Z,1022.02
2018-02-08T11:52:55.125Z,1022.04
2018-02-08T11:54:03.990Z,1022.01
2018-02-08T11:55:12.801Z,1022.02
2018-02-08T11:56:21.908Z,1022.02
2018-02-08T11:57:30.735Z,1022.04
2018-02-08T11:58:39.772Z,1022.04
2018-02-08T11:59:48.599Z,1022.03
2018-02-08T12:00:57.426Z,1022.01
2018-02-08T12:02:06.251Z,1022.04
2018-02-08T12:03:15.079Z,1022.03
2018-02-08T12:04:23.910Z,1022
2018-02-08T12:05:32.735Z,1021.99
2018-02-08T12:06:41.563Z,1021.95
2018-02-08T12:07:50.391Z,1021.95
2018-02-08T12:08:59.217Z,1021.95
2018-02-08T12:10:08.318Z,1021.95
2018-02-08T12:11:17.147Z,1021.93
2018-02-08T12:12:26.248Z,1021.91
2018-02-08T12:13:35.075Z,1021.92
2018-02-08T12:14:43.902Z,1021.84
2018-02-08T12:15:52.730Z,1021.86
2018-02-08T12:17:01.561Z,1021.83
2018-02-08T12:18:10.387Z,1021.8
2018-02-08T12:19:19.216Z,1021.81
2018-02-08T12:20:28.041Z,1021.76
2018-02-08T12:21:36.870Z,1021.77
2018-02-08T12:22:45.695Z,1021.74
2018-02-08T12:23:54.523Z,1021.74
2018-02-08T12:25:03.552Z,1021.72
2018-02-08T12:26:12.378Z,1021.7
2018-02-08T12:27:21.209Z,1021.7
2018-02-08T12:28:30.033Z,1021.72
2018-02-08T12:29:38.860Z,1021.72
2018-02-08T12:30:47.838Z,1021.69
2018-02-08T12:31:56.663Z,1021.65
2018-02-08T12:33:05.491Z,1021.66
2018-02-08T12:34:14.317Z,1021.67
2018-02-08T12:35:23.145Z,1021.62
2018-02-08T12:36:32.272Z,1021.61
2018-02-08T12:37:41.698Z,1021.59
2018-02-08T12:38:50.526Z,1021.59
2018-02-08T12:39:59.352Z,1021.59
2018-02-08T12:41:08.181Z,1021.59
2018-02-08T12:42:17.106Z,1021.56
2018-02-08T12:43:25.934Z,1021.56
2018-02-08T12:44:34.762Z,1021.55
2018-02-08T12:45:43.590Z,1021.48
2018-02-08T12:46:52.415Z,1021.48
2018-02-08T12:48:01.247Z,1021.47
2018-02-08T12:49:10.076Z,1021.47
2018-02-08T12:50:18.903Z,1021.44
2018-02-08T12:51:27.730Z,1021.4
2018-02-08T12:52:36.557Z,1021.43
2018-02-08T12:53:45.483Z,1021.39
2018-02-08T12:54:54.310Z,1021.4
2018-02-08T12:56:03.137Z,1021.43
2018-02-08T12:57:11.963Z,1021.37
2018-02-08T12:58:20.790Z,1021.36
2018-02-08T12:59:29.918Z,1021.36
2018-02-08T13:00:38.744Z,1021.3
2018-02-08T13:01:47.574Z,1021.29
2018-02-08T13:02:56.677Z,1021.28
2018-02-08T13:04:05.503Z,1021.3
2018-02-08T13:05:14.772Z,1021.29
2018-02-08T13:06:23.905Z,1021.23
2018-02-08T13:07:33.034Z,1021.22
2018-02-08T13:08:42.128Z,1021.22
2018-02-08T13:09:51.057Z,1021.22
2018-02-08T13:11:00.387Z,1021.2
2018-02-08T13:12:09.734Z,1021.15
2018-02-08T13:13:18.827Z,1021.18
2018-02-08T13:14:27.738Z,1021.17
2018-02-08T13:15:37.218Z,1021.23
2018-02-08T13:16:46.303Z,1021.22
2018-02-08T13:17:55.475Z,1021.25
2018-02-08T13:19:04.305Z,1021.21
2018-02-08T13:20:13.135Z,1021.23
2018-02-08T13:21:21.973Z,1021.28
2018-02-08T13:22:30.952Z,1021.27
2018-02-08T13:23:40.058Z,1021.33
2018-02-08T13:24:48.889Z,1021.29
2018-02-08T13:25:57.718Z,1021.29
2018-02-08T13:27:06.548Z,1021.23
2018-02-08T13:28:15.482Z,1021.24
2018-02-08T13:29:24.583Z,1021.24
2018-02-08T13:30:33.411Z,1021.25
2018-02-08T13:31:42.240Z,1021.2
2018-02-08T13:32:51.340Z,1021.21
2018-02-08T13:34:00.440Z,1021.22
2018-02-08T13:35:09.268Z,1021.16
2018-02-08T13:36:18.102Z,1021.13
2018-02-08T13:37:26.938Z,1021.07
2018-02-08T13:38:35.777Z,1021.11
2018-02-08T13:39:44.667Z,1021.1
2018-02-08T13:40:53.498Z,1021.09
2018-02-08T13:42:02.336Z,1021.04
2018-02-08T13:43:11.167Z,1021.03
2018-02-08T13:44:19.997Z,1021.06
2018-02-08T13:45:29.124Z,1020.99
2018-02-08T13:46:37.956Z,1021.02
2018-02-08T13:47:46.786Z,1021.01
2018-02-08T13:48:55.618Z,1020.97
2018-02-08T13:50:04.447Z,1020.98
2018-02-08T13:51:13.377Z,1020.98
2018-02-08T13:52:22.206Z,1020.97
2018-02-08T13:53:31.036Z,1020.9
2018-02-08T13:54:39.864Z,1020.92
2018-02-08T13:55:48.693Z,1020.93
2018-02-08T13:56:57.622Z,1020.95